createdAt,value
2023-01-06T00:01:11.560Z,98007.33
2023-01-06T00:03:38.669Z,98015.73
2023-01-06T00:06:07.070Z,98020.64
2023-01-06T00:08:35.211Z,98025.48
2023-01-06T00:11:13.008Z,98024.95
2023-01-06T00:13:40.355Z,98032.21
2023-01-06T00:16:10.562Z,98040.86
2023-01-06T00:18:37.461Z,98050.33
2023-01-06T00:21:04.672Z,98053.09
2023-01-06T00:23:31.827Z,98062.14
2023-01-06T00:25:58.644Z,98065.06
2023-01-06T00:28:25.613Z,98070.14
2023-01-06T00:30:53.078Z,98067.65
2023-01-06T00:33:20.153Z,98072.66
2023-01-06T00:35:47.293Z,98074.34
2023-01-06T00:38:14.335Z,98081.09
2023-01-06T00:40:41.181Z,98085.23
2023-01-06T00:43:08.469Z,98090.75
2023-01-06T00:45:35.460Z,98096.19
2023-01-06T00:48:02.387Z,98093.27
2023-01-06T00:50:29.501Z,98103.45
2023-01-06T00:52:56.841Z,98102.25
2023-01-06T00:55:24.152Z,98106.99
2023-01-06T00:57:52.807Z,98108.20
2023-01-06T01:00:20.301Z,98111.83
2023-01-06T01:02:47.366Z,98116.52
2023-01-06T01:05:14.554Z,98115.02
2023-01-06T01:07:42.620Z,98120.10
2023-01-06T01:10:10.255Z,98122.38
2023-01-06T01:12:37.777Z,98128.66
2023-01-06T01:15:05.990Z,98134.27
2023-01-06T01:17:33.304Z,98138.13
2023-01-06T01:20:01.312Z,98143.60
2023-01-06T01:22:30.127Z,98144.46
2023-01-06T01:24:57.254Z,98145.30
2023-01-06T01:27:26.073Z,98147.71
2023-01-06T01:29:52.949Z,98145.56
2023-01-06T01:32:19.888Z,98149.03
2023-01-06T01:34:46.759Z,98147.71
2023-01-06T01:37:14.298Z,98151.64
2023-01-06T01:39:41.994Z,98153.13
2023-01-06T01:42:17.976Z,98154.90
2023-01-06T01:45:07.171Z,98164.36
2023-01-06T01:47:50.196Z,98171.13
2023-01-06T01:50:17.126Z,98175.31
2023-01-06T01:52:45.071Z,98184.81
2023-01-06T01:55:12.010Z,98180.51
2023-01-06T01:57:52.014Z,98184.77
2023-01-06T02:00:18.962Z,98185.86
2023-01-06T02:02:45.819Z,98185.55
2023-01-06T02:05:14.567Z,98192.23
2023-01-06T02:07:41.622Z,98194.18
2023-01-06T02:10:17.529Z,98191.14
2023-01-06T02:12:45.068Z,98198.34
2023-01-06T02:15:17.858Z,98199.33
2023-01-06T02:18:08.098Z,98203.01
2023-01-06T02:20:36.294Z,98200.27
2023-01-06T02:23:10.016Z,98204.90
2023-01-06T02:25:56.207Z,98212.34
2023-01-06T02:28:57.622Z,98209.92
2023-01-06T02:31:50.523Z,98207.99
2023-01-06T02:34:54.959Z,98210.33
2023-01-06T02:37:33.936Z,98213.05
2023-01-06T02:40:10.746Z,98220.64
2023-01-06T02:42:48.662Z,98223.80
2023-01-06T02:45:15.868Z,98230.98
2023-01-06T02:48:11.276Z,98239.95
2023-01-06T02:50:48.007Z,98239.20
2023-01-06T02:53:38.444Z,98240.48
2023-01-06T02:56:05.699Z,98248.77
2023-01-06T02:58:47.693Z,98245.88
2023-01-06T03:01:23.751Z,98244.89
2023-01-06T03:03:51.382Z,98243.91
2023-01-06T03:06:22.080Z,98245.54
2023-01-06T03:08:49.398Z,98249.31
2023-01-06T03:11:16.953Z,98253.98
2023-01-06T03:13:59.420Z,98251.48
2023-01-06T03:16:26.446Z,98267.06
2023-01-06T03:18:54.116Z,98266.77
2023-01-06T03:21:23.681Z,98268.43
2023-01-06T03:23:50.578Z,98271.43
2023-01-06T03:26:18.239Z,98281.51
2023-01-06T03:28:45.621Z,98281.86
2023-01-06T03:31:41.143Z,98296.83
2023-01-06T03:34:41.376Z,98307.70
2023-01-06T03:37:58.314Z,98329.37
2023-01-06T03:40:28.713Z,98347.23
2023-01-06T03:43:24.441Z,98345.49
2023-01-06T03:46:05.221Z,98345.09
2023-01-06T03:48:56.758Z,98361.55
2023-01-06T03:51:49.786Z,98372.02
2023-01-06T03:54:20.613Z,98377.73
2023-01-06T03:56:54.924Z,98377.97
2023-01-06T03:59:26.807Z,98385.17
2023-01-06T04:01:54.382Z,98389.29
2023-01-06T04:04:21.495Z,98385.41
2023-01-06T04:06:48.955Z,98388.92
2023-01-06T04:09:16.732Z,98392.92
2023-01-06T04:12:02.914Z,98406.55
2023-01-06T04:14:30.768Z,98418.52
2023-01-06T04:16:58.701Z,98427.30
2023-01-06T04:19:27.852Z,98427.60
2023-01-06T04:21:55.221Z,98424.98
2023-01-06T04:24:23.584Z,98421.48
2023-01-06T04:26:50.732Z,98433.04
2023-01-06T04:29:17.693Z,98431.66
2023-01-06T04:31:45.011Z,98432.84
2023-01-06T04:34:11.984Z,98441.41
2023-01-06T04:36:39.258Z,98446.41
2023-01-06T04:39:06.774Z,98443.63
2023-01-06T04:41:34.029Z,98451.80
2023-01-06T04:44:02.860Z,98461.71
2023-01-06T04:46:29.985Z,98471.81
2023-01-06T04:48:56.826Z,98477.83
2023-01-06T04:51:23.889Z,98493.04
2023-01-06T04:53:50.709Z,98501.72
2023-01-06T04:56:17.753Z,98509.45
2023-01-06T04:58:44.791Z,98510.81
2023-01-06T05:01:12.399Z,98515.96
2023-01-06T05:03:39.973Z,98526.30
2023-01-06T05:06:11.955Z,98539.71
2023-01-06T05:08:39.731Z,98543.39
2023-01-06T05:11:27.193Z,98554.17
2023-01-06T05:13:54.924Z,98561.66
2023-01-06T05:16:26.277Z,98563.96
2023-01-06T05:18:53.901Z,98572.19
2023-01-06T05:21:21.682Z,98581.59
2023-01-06T05:23:48.589Z,98594.83
2023-01-06T05:26:18.340Z,98602.02
2023-01-06T05:28:45.597Z,98605.75
2023-01-06T05:31:12.620Z,98611.40
2023-01-06T05:33:42.730Z,98615.82
2023-01-06T05:36:11.996Z,98626.15
2023-01-06T05:38:39.024Z,98631.71
2023-01-06T05:41:06.067Z,98635.22
2023-01-06T05:43:34.020Z,98642.13
2023-01-06T05:46:05.318Z,98647.33
2023-01-06T05:48:33.413Z,98652.16
2023-01-06T05:51:02.436Z,98659.54
2023-01-06T05:53:32.069Z,98651.34
2023-01-06T05:56:03.503Z,98652.11
2023-01-06T05:58:33.035Z,98655.19
2023-01-06T06:01:03.803Z,98651.90
2023-01-06T06:03:31.702Z,98651.72
2023-01-06T06:06:05.827Z,98665.27
2023-01-06T06:08:32.979Z,98673.63
2023-01-06T06:11:04.432Z,98677.77
2023-01-06T06:13:32.056Z,98685.20
2023-01-06T06:16:05.129Z,98693.93
2023-01-06T06:18:32.382Z,98696.37
2023-01-06T06:21:03.502Z,98704.79
2023-01-06T06:23:33.374Z,98722.19
2023-01-06T06:26:00.752Z,98729.77
2023-01-06T06:28:29.732Z,98743.98
2023-01-06T06:31:02.886Z,98743.21
2023-01-06T06:33:29.903Z,98740.44
2023-01-06T06:35:58.028Z,98741.91
2023-01-06T06:38:25.072Z,98748.91
2023-01-06T06:40:52.082Z,98752.35
2023-01-06T06:43:19.064Z,98754.55
2023-01-06T06:45:46.863Z,98762.41
2023-01-06T06:48:14.999Z,98768.30
2023-01-06T06:50:42.000Z,98781.26
2023-01-06T06:53:09.041Z,98783.31
2023-01-06T06:55:36.168Z,98785.09
2023-01-06T06:58:03.415Z,98786.13
2023-01-06T07:00:30.627Z,98790.63
2023-01-06T07:02:57.521Z,98808.35
2023-01-06T07:05:25.749Z,98814.90
2023-01-06T09:59:50.576Z,98997.35
2023-01-06T10:02:38.008Z,98992.98
2023-01-06T10:05:22.695Z,98996.55
2023-01-06T10:07:54.826Z,98995.98
2023-01-06T10:10:49.731Z,98995.34
2023-01-06T10:13:29.937Z,98994.67
2023-01-06T10:16:18.980Z,98996.59
2023-01-06T10:18:48.846Z,99002.05
2023-01-06T10:21:30.864Z,99005.50
2023-01-06T10:24:25.332Z,99002.55
2023-01-06T10:26:59.806Z,99004.56
2023-01-06T10:29:32.820Z,99003.88
2023-01-06T10:32:00.044Z,99007.54
2023-01-06T10:34:28.165Z,99005.93
2023-01-06T10:36:57.280Z,99010.73
2023-01-06T10:39:25.438Z,99011.32
2023-01-06T10:41:52.651Z,99017.27
2023-01-06T10:44:19.709Z,99020.10
2023-01-06T10:46:48.938Z,99019.23
2023-01-06T10:49:18.200Z,99020.41
2023-01-06T10:51:51.717Z,99024.94
2023-01-06T10:54:20.079Z,99022.55
2023-01-06T10:56:55.587Z,99016.09
2023-01-06T10:59:22.530Z,99007.35
2023-01-06T11:01:51.647Z,99005.83
2023-01-06T11:04:20.048Z,99001.99
2023-01-06T11:07:07.336Z,99006.94
2023-01-06T11:09:40.213Z,99003.85
2023-01-06T11:12:12.984Z,99006.67
2023-01-06T11:14:40.026Z,99013.42
2023-01-06T11:17:10.187Z,99013.56
2023-01-06T11:19:41.994Z,99011.61
2023-01-06T11:25:23.416Z,99011.71
2023-01-06T11:28:20.684Z,99012.16
2023-01-06T11:31:13.737Z,99016.67
2023-01-06T11:33:48.859Z,99014.22
2023-01-06T11:36:15.671Z,99014.15
2023-01-06T11:39:03.974Z,99009.91
2023-01-06T11:41:38.238Z,99012.96
2023-01-06T11:44:25.569Z,99012.02
2023-01-06T11:46:57.180Z,99014.40
2023-01-06T11:49:39.619Z,99015.13
2023-01-06T11:52:19.891Z,99022.05
2023-01-06T11:55:00.363Z,99021.35
2023-01-06T11:57:27.239Z,99031.90
2023-01-06T12:00:22.628Z,99031.31
2023-01-06T12:02:52.049Z,99029.98
2023-01-06T12:05:51.638Z,99027.39
2023-01-06T12:08:28.722Z,99029.61
2023-01-06T12:10:59.795Z,99029.98
2023-01-06T12:13:27.647Z,99029.86
2023-01-06T12:16:01.701Z,99031.65
2023-01-06T12:18:31.218Z,99034.54
2023-01-06T12:20:58.285Z,99034.37
2023-01-06T12:23:30.316Z,99035.00
2023-01-06T12:26:05.506Z,99030.73
2023-01-06T12:28:42.291Z,99022.18
2023-01-06T12:31:20.547Z,99018.75
2023-01-06T12:33:49.049Z,99016.83
2023-01-06T12:36:18.689Z,99021.88
2023-01-06T12:38:55.592Z,99016.42
2023-01-06T12:41:28.916Z,99023.12
2023-01-06T12:44:23.820Z,99020.31
2023-01-06T12:47:12.544Z,99023.64
2023-01-06T12:49:54.197Z,99023.94
2023-01-06T12:52:36.037Z,99025.34
2023-01-06T12:55:03.367Z,99031.70
2023-01-06T12:57:51.978Z,99032.26
2023-01-06T13:00:51.498Z,99030.61
2023-01-06T13:03:26.097Z,99034.34
2023-01-06T13:06:02.338Z,99038.38
2023-01-06T13:08:46.451Z,99042.03
2023-01-06T13:11:25.016Z,99044.05
2023-01-06T13:14:11.189Z,99050.34
2023-01-06T13:16:44.206Z,99054.05
2023-01-06T13:19:15.755Z,99052.95
2023-01-06T13:21:43.039Z,99052.83
2023-01-06T13:24:22.272Z,99056.80
2023-01-06T13:26:52.428Z,99057.42
2023-01-06T13:29:23.178Z,99070.34
2023-01-06T13:32:27.644Z,99074.52
2023-01-06T13:35:36.001Z,99073.02
2023-01-06T13:38:18.392Z,99079.91
2023-01-06T13:40:45.476Z,99080.73
2023-01-06T13:43:20.180Z,99080.56
2023-01-06T13:45:49.024Z,99081.96
2023-01-06T13:48:20.159Z,99076.30
2023-01-06T13:50:47.033Z,99076.90
2023-01-06T13:53:17.371Z,99080.95
2023-01-06T13:55:44.418Z,99075.35
2023-01-06T13:58:29.136Z,99078.13
2023-01-06T14:01:07.022Z,99081.37
2023-01-06T14:03:36.646Z,99082.09
2023-01-06T14:06:03.775Z,99087.59
2023-01-06T14:08:38.004Z,99088.07
2023-01-06T14:11:26.679Z,99088.82
2023-01-06T14:14:01.374Z,99081.50
2023-01-06T14:16:43.361Z,99081.95
2023-01-06T14:19:24.004Z,99085.28
2023-01-06T14:21:52.872Z,99089.84
2023-01-06T14:24:25.627Z,99092.75
2023-01-06T14:26:53.012Z,99103.42
2023-01-06T14:29:49.049Z,99101.44
2023-01-06T14:32:16.995Z,99103.27
2023-01-06T14:35:01.813Z,99100.17
2023-01-06T14:37:32.233Z,99098.81
2023-01-06T14:39:59.075Z,99102.82
2023-01-06T14:42:34.833Z,99106.52
2023-01-06T14:45:05.585Z,99106.27
2023-01-06T14:47:34.729Z,99110.59
2023-01-06T14:50:06.511Z,99104.11
2023-01-06T14:52:35.564Z,99103.34
2023-01-06T14:55:03.348Z,99101.09
2023-01-06T14:57:35.423Z,99100.08
2023-01-06T15:00:33.448Z,99099.64
2023-01-06T15:03:02.920Z,99100.11
2023-01-06T15:05:33.719Z,99107.66
2023-01-06T15:08:06.505Z,99102.50
2023-01-06T15:10:38.226Z,99104.73
2023-01-06T15:13:27.186Z,99105.98
2023-01-06T15:15:57.802Z,99106.58
2023-01-06T15:18:24.885Z,99108.21
2023-01-06T15:20:52.539Z,99111.19
2023-01-06T15:23:19.899Z,99111.14
2023-01-06T15:25:48.489Z,99113.13
2023-01-06T15:28:32.680Z,99110.55
2023-01-06T15:31:00.432Z,99111.56
2023-01-06T15:33:38.883Z,99116.20
2023-01-06T15:36:06.224Z,99123.47
2023-01-06T15:38:34.659Z,99123.67
2023-01-06T15:41:02.306Z,99123.10
2023-01-06T15:43:41.272Z,99125.54
2023-01-06T15:46:10.107Z,99121.31
2023-01-06T15:48:38.947Z,99125.75
2023-01-06T15:51:12.219Z,99123.34
2023-01-06T15:53:39.294Z,99125.27
2023-01-06T15:56:06.381Z,99121.66
2023-01-06T15:58:37.053Z,99117.27
2023-01-06T16:01:17.316Z,99109.52
2023-01-06T16:03:47.972Z,99102.42
2023-01-06T19:03:57.043Z,99087.60
2023-01-06T19:07:02.623Z,99079.35
2023-01-06T19:09:46.146Z,99083.02
2023-01-06T19:12:28.085Z,99072.28
2023-01-06T19:14:55.250Z,99077.91
2023-01-06T19:17:27.284Z,99089.05
2023-01-06T19:19:56.091Z,99100.36
2023-01-06T19:22:27.731Z,99101.39
2023-01-06T19:24:57.642Z,99096.80
2023-01-06T19:27:30.073Z,99103.45
2023-01-06T19:30:01.589Z,99100.17
2023-01-06T19:32:28.987Z,99106.67
2023-01-06T19:34:56.186Z,99099.76
2023-01-06T19:37:23.059Z,99099.26
2023-01-06T19:39:54.820Z,99095.36
2023-01-06T19:42:29.770Z,99098.58
2023-01-06T19:44:58.567Z,99098.67
2023-01-06T19:47:30.614Z,99084.69
2023-01-06T19:50:00.895Z,99081.77
2023-01-06T19:52:39.841Z,99086.95
2023-01-06T19:55:26.540Z,99088.23
2023-01-06T19:58:02.429Z,99103.58
2023-01-06T20:00:47.840Z,99104.20
2023-01-06T20:03:27.025Z,99102.73
2023-01-06T20:05:53.963Z,99087.27
2023-01-06T20:08:20.919Z,99079.73
2023-01-06T20:10:47.810Z,99083.79
2023-01-06T20:13:15.123Z,99085.55
2023-01-06T20:15:42.048Z,99084.82
2023-01-06T20:18:09.360Z,99084.20
2023-01-06T20:20:36.659Z,99089.17
2023-01-06T20:23:03.702Z,99086.44
2023-01-06T20:25:30.970Z,99088.69
2023-01-06T20:27:59.129Z,99087.80
2023-01-06T20:30:26.419Z,99087.73
2023-01-06T20:32:53.323Z,99082.91
2023-01-06T20:35:21.566Z,99080.70
2023-01-06T20:37:48.894Z,99084.31
2023-01-06T20:40:16.122Z,99081.64
2023-01-06T20:42:43.032Z,99080.73
2023-01-06T20:45:10.711Z,99077.52
2023-01-06T20:47:38.092Z,99077.67
2023-01-06T20:50:07.433Z,99085.34
2023-01-06T20:52:34.995Z,99085.41
2023-01-06T20:55:02.151Z,99080.77
2023-01-06T20:57:29.212Z,99076.77
2023-01-06T20:59:56.026Z,99073.52
2023-01-06T21:02:23.018Z,99061.46
2023-01-06T21:04:49.951Z,99059.23
2023-01-06T21:07:16.998Z,99059.23
2023-01-06T21:09:43.809Z,99054.19
2023-01-06T21:12:10.903Z,99046.79
2023-01-06T21:14:40.493Z,99043.95
2023-01-06T21:17:07.682Z,99043.12
2023-01-06T21:19:34.817Z,99047.52
2023-01-06T21:22:01.783Z,99052.92
2023-01-06T21:24:29.117Z,99055.35
2023-01-06T21:26:56.068Z,99061.15
2023-01-06T21:29:22.983Z,99062.61
2023-01-06T21:31:49.926Z,99057.25
2023-01-06T21:34:16.862Z,99051.55
2023-01-06T21:36:43.902Z,99044.72
2023-01-06T21:39:11.084Z,99043.19
2023-01-06T21:41:56.813Z,99038.27
2023-01-06T21:44:24.515Z,99034.65
2023-01-06T21:46:51.419Z,99031.05
2023-01-06T21:49:18.252Z,99022.40
2023-01-06T21:51:48.858Z,99024.05
2023-01-06T21:54:15.989Z,99019.62
2023-01-06T21:56:42.853Z,99018.83
2023-01-06T21:59:10.119Z,99016.63
2023-01-06T22:01:37.308Z,99016.84
2023-01-06T22:04:04.559Z,99012.95
2023-01-06T22:06:31.366Z,99017.33
2023-01-06T22:09:00.003Z,99023.56
2023-01-06T22:11:27.699Z,99018.09
2023-01-06T22:13:54.905Z,99008.45
2023-01-06T22:16:21.877Z,99004.97
2023-01-06T22:18:49.176Z,98997.72
2023-01-06T22:21:16.476Z,99001.73
2023-01-06T22:23:43.515Z,98995.45
2023-01-06T22:26:10.534Z,98995.04
2023-01-06T22:28:37.496Z,98997.42
2023-01-06T22:31:04.921Z,98996.48
2023-01-06T22:33:31.911Z,98990.38
2023-01-06T22:35:59.063Z,98994.45
2023-01-06T22:38:26.300Z,98990.89
2023-01-06T22:40:53.450Z,98989.77
2023-01-06T22:43:22.252Z,98987.55
2023-01-06T22:45:56.805Z,98982.70
2023-01-06T22:48:24.839Z,98977.65
2023-01-06T22:51:02.333Z,98975.33
2023-01-06T22:53:30.087Z,98976.55
2023-01-06T22:55:57.834Z,98973.73
2023-01-06T22:58:25.082Z,98969.99
2023-01-06T23:00:52.111Z,98965.39
2023-01-06T23:03:19.806Z,98964.39
2023-01-06T23:06:05.208Z,98966.43
2023-01-06T23:08:33.424Z,98961.58
2023-01-06T23:11:06.087Z,98955.39
2023-01-06T23:13:33.418Z,98948.17
2023-01-06T23:16:02.048Z,98951.19
2023-01-06T23:18:30.253Z,98956.34
2023-01-06T23:21:01.821Z,98959.41
2023-01-06T23:23:29.360Z,98955.13
2023-01-06T23:26:03.679Z,98950.68
2023-01-06T23:28:30.692Z,98943.47
2023-01-06T23:31:08.728Z,98940.82
2023-01-06T23:33:39.286Z,98939.22
2023-01-06T23:36:07.427Z,98940.82
2023-01-06T23:38:34.503Z,98942.30
2023-01-06T23:41:11.884Z,98944.55
2023-01-06T23:43:38.920Z,98949.86
2023-01-06T23:46:07.667Z,98942.33
2023-01-06T23:48:34.957Z,98939.02
2023-01-06T23:51:02.248Z,98940.33
2023-01-06T23:53:29.710Z,98933.90
2023-01-06T23:55:58.252Z,98933.34
2023-01-06T23:58:25.377Z,98933.27
